Брянск

Карта отелей и гостиниц, располагающихся рядом с аэропортом Брянск :

Брянск Брянская область 53° 12' 51.9012" N, 34° 10' 33.4812" E
Код аэродрома ИКАО
UUBP
Код аэродрома RU
УУБП
Координаты
N53.21442° E034.17597°
Превышение над уровнем моря
203
Основная полоса
16L/34R
Курс магнитный
162,5/342,5
Длина основной ВПП
2400
Ширина основной ВПП
42
Покрытие основной ВПП
Твёрдое
Освещение ВПП
Постоянное
Тип: 
Аэродром
Класс аэродрома: 
Международный
Принадлежность: 
ГА
Статус: 
Действующий
Сайт: 
aero32.ru
E-mail аэродрома: 
MAB@aero32.ru
Страна: 
Россия
Регион: 
Брянская область
Дополнительная информация: 
Оператор: ОАО «Международный аэропорт «Брянск». Нкр.=(500)м. ДПРМ: 325-"OD/NU", БПРМ: 668-"O/N".
Погода: 

Авиационная погода в Брянске

Регион: 
Погода METAR: 
UUBP 281200Z 06003MPS 9999 BKN056CB 10/06 Q1028 R34/190060 NOSIG RMK QFE753/1004
Время наблюдения
2021-09-28T12:00:00Z
Температура C
10.0
Точка росы
6.0
Направление ветра
60
Скорость ветра (узлы)
6
Метео видимость
6.21
Явления погоды
Условия полета
VFR
Аэропорт подробнее: 

Найти трансфер

С помощью этой формы Вы можете найти трансфер из аэропорта Брянск в город, аэропорт или вокзал:

Карта места

Javascript is required to view this map.

Погода в аэропортах:

Авиационная погода в аэропорту Сокол

Регион: 
Погода METAR: 
UHMM 281200Z 07002MPS 9999 -SHRA OVC024CB 05/03 Q1005 RMK QFE739 R28/10003MPS
Время наблюдения
2021-09-28T12:00:00Z
Температура C
5.0
Точка росы
3.0
Направление ветра
70
Скорость ветра (узлы)
4
Метео видимость
6.21
Явления погоды
-SHRA
Условия полета
MVFR
Аэропорт подробнее: 

Авиационная погода в Магнитогорске

Погода METAR: 
USCM 281200Z 03010MPS 4500 -SHRA BR OVC010CB 02/02 Q1016 R36/290055 TEMPO 02015MPS 1200 SHSNRA BR VV004 RMK QFE724
Время наблюдения
2021-09-28T12:00:00Z
Температура C
2.0
Точка росы
2.0
Направление ветра
30
Скорость ветра (узлы)
19
Метео видимость
2.8
Явления погоды
-SHRA BR
Условия полета
IFR
Аэропорт подробнее: 

Авиационная погода в Кокшетау

Регион: 
Погода METAR: 
UACK 281300Z 09010MPS 7000 -DZ OVC006 03/02 Q1010 R02/250250 NOSIG RMK QBB190 QFE734/0978
Время наблюдения
2021-09-28T13:00:00Z
Температура C
3.0
Точка росы
2.0
Направление ветра
90
Скорость ветра (узлы)
19
Метео видимость
4.35
Явления погоды
-DZ
Условия полета
IFR
Аэропорт подробнее: 

Авиационная погода в Караганде

Регион: 
Погода METAR: 
UAKK 281300Z 24005MPS 8000 -RA OVC030 08/07 Q1010 R23/2///60 NOSIG RMK QFE711/0948
Время наблюдения
2021-09-28T13:00:00Z
Температура C
8.0
Точка росы
7.0
Направление ветра
240
Скорость ветра (узлы)
10
Метео видимость
4.97
Явления погоды
-RA
Условия полета
MVFR
Аэропорт подробнее: